Time;durP1;ratioP1;P1;durP2;ratioP2;P2;SDS_P1;SDS_P2;PMS_P1;PMS_P2;Temp;Humidity;BMP_temperature;BMP_pressure;BME280_temperature;BME280_humidity;BME280_pressure;Samples;Min_cycle;Max_cycle;Signal;HPM_P1;HPM_P2
2021/07/23 00:00:45;;;;;;;12.32;8.38;;;21.30;91.70;;;;;;5112179;27;20040;-48
2021/07/23 00:03:11;;;;;;;8.35;7.20;;;21.30;91.60;;;;;;5095736;28;20032;-46
2021/07/23 00:05:37;;;;;;;10.20;8.10;;;21.30;91.50;;;;;;5119381;27;20051;-47
2021/07/23 00:08:03;;;;;;;12.20;7.97;;;21.30;91.40;;;;;;5114346;27;20493;-46
2021/07/23 00:10:28;;;;;;;9.50;8.05;;;21.30;91.50;;;;;;5096436;28;20268;-46
2021/07/23 00:12:54;;;;;;;15.82;8.20;;;21.20;91.30;;;;;;5115361;27;20039;-46
2021/07/23 00:15:20;;;;;;;9.05;7.57;;;21.10;91.40;;;;;;5116359;28;20535;-46
2021/07/23 00:17:45;;;;;;;9.05;8.05;;;21.10;91.60;;;;;;5096008;28;20066;-47
2021/07/23 00:20:11;;;;;;;12.57;8.88;;;21.00;91.70;;;;;;5116132;28;20062;-46
2021/07/23 00:22:38;;;;;;;10.27;8.07;;;21.00;92.00;;;;;;5095040;28;20036;-46
2021/07/23 00:25:04;;;;;;;9.10;7.63;;;20.90;91.90;;;;;;5121964;28;20373;-47
2021/07/23 00:27:30;;;;;;;8.25;6.97;;;20.90;91.90;;;;;;5081233;28;20085;-47
2021/07/23 00:29:56;;;;;;;11.35;8.18;;;20.80;92.00;;;;;;5115419;28;20028;-45
2021/07/23 00:32:22;;;;;;;8.88;7.00;;;20.70;92.00;;;;;;5094282;28;20036;-45
2021/07/23 00:34:48;;;;;;;12.63;8.20;;;20.70;92.00;;;;;;5037759;28;20486;-47
2021/07/23 00:37:13;;;;;;;9.88;8.07;;;20.60;92.00;;;;;;5118214;28;20043;-47
2021/07/23 00:39:39;;;;;;;10.90;7.68;;;20.60;92.00;;;;;;5093483;28;20032;-46
2021/07/23 00:42:05;;;;;;;9.88;7.60;;;20.60;92.00;;;;;;5083982;28;20036;-46
2021/07/23 00:44:33;;;;;;;9.77;8.05;;;20.60;92.00;;;;;;5111000;28;20050;-46
2021/07/23 00:46:59;;;;;;;9.77;8.15;;;20.60;92.00;;;;;;5086381;28;20103;-46
2021/07/23 00:49:25;;;;;;;9.63;7.45;;;20.60;92.00;;;;;;5113858;28;20023;-46
2021/07/23 00:51:51;;;;;;;9.95;7.72;;;20.60;92.10;;;;;;5118888;28;20382;-46
2021/07/23 00:54:19;;;;;;;8.57;7.63;;;20.60;92.20;;;;;;5116137;28;20035;-45
2021/07/23 00:56:45;;;;;;;11.52;7.22;;;20.50;92.10;;;;;;5098564;28;20035;-49
2021/07/23 00:59:12;;;;;;;8.50;7.70;;;20.50;92.20;;;;;;5111737;28;20371;-46
2021/07/23 01:01:38;;;;;;;10.15;7.60;;;20.50;92.30;;;;;;5126152;27;20423;-46
2021/07/23 01:04:04;;;;;;;10.40;7.53;;;20.50;92.40;;;;;;5130289;27;20111;-46
2021/07/23 01:06:30;;;;;;;12.48;8.80;;;20.50;92.40;;;;;;5125460;27;20366;-46
2021/07/23 01:08:56;;;;;;;9.80;7.78;;;20.40;92.40;;;;;;5128295;27;20068;-45
2021/07/23 01:11:24;;;;;;;12.18;7.78;;;20.40;92.40;;;;;;5109901;28;20483;-46
2021/07/23 01:13:50;;;;;;;10.95;8.43;;;20.40;92.40;;;;;;5118946;27;20042;-46
2021/07/23 01:16:16;;;;;;;14.68;7.78;;;20.40;92.40;;;;;;5104364;28;20028;-47
2021/07/23 01:18:42;;;;;;;11.13;8.65;;;20.40;92.40;;;;;;5121901;27;20024;-45
2021/07/23 01:21:09;;;;;;;11.68;8.13;;;20.40;92.50;;;;;;5086043;28;20044;-46
2021/07/23 01:23:36;;;;;;;10.20;7.93;;;20.40;92.50;;;;;;5125490;27;20087;-46
2021/07/23 01:26:03;;;;;;;11.70;7.97;;;20.40;92.50;;;;;;5118349;27;20024;-46
2021/07/23 01:28:31;;;;;;;11.60;7.97;;;20.40;92.40;;;;;;5126044;27;20023;-46
2021/07/23 01:30:58;;;;;;;11.30;8.05;;;20.40;92.50;;;;;;5120747;27;20062;-45
2021/07/23 01:33:25;;;;;;;10.80;8.30;;;20.40;92.50;;;;;;5118805;27;20031;-46
2021/07/23 01:35:51;;;;;;;9.13;8.20;;;20.30;92.60;;;;;;5116805;27;20059;-46
2021/07/23 01:38:19;;;;;;;8.93;7.97;;;20.30;92.70;;;;;;5124851;27;20020;-45
2021/07/23 01:40:46;;;;;;;11.38;8.75;;;20.30;92.70;;;;;;5117677;27;20032;-46
2021/07/23 01:43:14;;;;;;;9.63;8.38;;;20.10;92.80;;;;;;5124040;27;20041;-46
2021/07/23 01:45:41;;;;;;;9.40;8.50;;;20.10;92.80;;;;;;5121830;27;20065;-45
2021/07/23 01:48:08;;;;;;;9.63;8.40;;;20.10;92.90;;;;;;5118758;27;20039;-45
2021/07/23 01:50:34;;;;;;;11.25;8.82;;;20.10;92.80;;;;;;5116528;27;20076;-46
2021/07/23 01:53:00;;;;;;;10.52;8.52;;;20.10;92.80;;;;;;5122148;27;20027;-46
2021/07/23 01:55:25;;;;;;;9.77;8.75;;;20.00;92.80;;;;;;5082472;27;20040;-46
2021/07/23 01:57:51;;;;;;;10.75;8.27;;;20.00;92.90;;;;;;5114154;27;20062;-45
2021/07/23 02:00:17;;;;;;;10.90;8.75;;;20.10;92.90;;;;;;5096869;28;20043;-46
2021/07/23 02:02:43;;;;;;;10.48;8.25;;;20.00;93.00;;;;;;5113933;27;20027;-46
2021/07/23 02:05:09;;;;;;;11.15;8.90;;;20.00;93.00;;;;;;5120841;27;20036;-46
2021/07/23 02:07:36;;;;;;;9.95;8.10;;;20.00;93.00;;;;;;5128174;27;20451;-46
2021/07/23 02:10:04;;;;;;;12.10;8.63;;;19.90;93.00;;;;;;5071911;27;20110;-46
2021/07/23 02:12:30;;;;;;;11.98;9.10;;;19.90;93.10;;;;;;5119967;27;20080;-46
2021/07/23 02:14:55;;;;;;;10.23;8.50;;;19.80;92.90;;;;;;5117551;27;20475;-47
2021/07/23 02:17:21;;;;;;;10.20;8.93;;;19.90;92.90;;;;;;5103365;27;20046;-47
2021/07/23 02:19:47;;;;;;;10.27;8.65;;;19.90;92.80;;;;;;5117558;27;20027;-46
2021/07/23 02:22:13;;;;;;;18.65;8.77;;;19.90;92.80;;;;;;5118608;27;20027;-46
2021/07/23 02:24:39;;;;;;;11.15;8.15;;;19.90;92.70;;;;;;5120230;27;20031;-46
2021/07/23 02:27:04;;;;;;;11.45;8.27;;;19.80;92.70;;;;;;5066281;28;20036;-46
2021/07/23 02:29:30;;;;;;;12.63;9.50;;;19.80;92.70;;;;;;5096278;28;20040;-47
2021/07/23 02:31:56;;;;;;;12.90;8.82;;;19.80;92.70;;;;;;5077819;28;20032;-46
2021/07/23 02:34:25;;;;;;;12.80;8.93;;;19.80;92.70;;;;;;5092332;28;20024;-46
2021/07/23 02:36:51;;;;;;;12.23;9.15;;;19.80;92.70;;;;;;5069764;28;20399;-45
2021/07/23 02:39:19;;;;;;;12.70;8.73;;;19.80;92.80;;;;;;5064149;28;20040;-46
2021/07/23 02:41:45;;;;;;;9.88;8.55;;;19.70;92.80;;;;;;5074060;28;20043;-46
2021/07/23 02:44:11;;;;;;;9.77;8.73;;;19.80;92.80;;;;;;5076187;28;20032;-46
2021/07/23 02:46:36;;;;;;;10.10;8.45;;;19.80;92.70;;;;;;5088977;28;20152;-45
2021/07/23 02:49:02;;;;;;;9.23;8.00;;;19.80;92.70;;;;;;5076792;28;20029;-46
2021/07/23 02:51:28;;;;;;;9.77;8.10;;;19.80;92.80;;;;;;5075393;28;20039;-46
2021/07/23 02:53:54;;;;;;;12.00;8.52;;;19.80;92.70;;;;;;5060175;28;20067;-46
2021/07/23 02:56:19;;;;;;;10.88;8.30;;;19.80;92.60;;;;;;5038046;28;20036;-47
2021/07/23 02:58:46;;;;;;;12.60;8.40;;;19.70;92.80;;;;;;5077933;28;20032;-45
2021/07/23 03:01:12;;;;;;;10.98;8.95;;;19.70;92.80;;;;;;5078842;28;20040;-46
2021/07/23 03:03:38;;;;;;;13.07;8.70;;;19.40;93.10;;;;;;5095373;28;20048;-46
2021/07/23 03:06:04;;;;;;;16.15;12.07;;;19.20;93.70;;;;;;5074336;28;20097;-46
2021/07/23 03:08:30;;;;;;;13.70;11.32;;;18.90;94.10;;;;;;5076389;28;20040;-46
2021/07/23 03:10:56;;;;;;;12.70;10.57;;;18.50;94.70;;;;;;5081132;28;20360;-45
2021/07/23 03:13:22;;;;;;;12.07;9.50;;;18.10;95.30;;;;;;5082780;28;20025;-45
2021/07/23 03:15:48;;;;;;;10.43;9.43;;;17.80;95.90;;;;;;5074727;28;20051;-46
2021/07/23 03:18:17;;;;;;;11.75;10.43;;;17.90;96.00;;;;;;5095806;28;20036;-45
2021/07/23 03:20:42;;;;;;;9.88;8.68;;;18.00;95.90;;;;;;5085173;28;20039;-46
2021/07/23 03:23:09;;;;;;;12.25;8.73;;;17.90;96.00;;;;;;5075021;28;20020;-46
2021/07/23 03:25:35;;;;;;;12.20;9.32;;;17.90;96.20;;;;;;5081883;28;20498;-47
2021/07/23 03:28:02;;;;;;;12.10;9.18;;;17.80;96.40;;;;;;5080608;28;20024;-46
2021/07/23 03:30:27;;;;;;;9.50;8.50;;;17.90;96.40;;;;;;5080972;28;20096;-46
2021/07/23 03:32:53;;;;;;;10.45;9.32;;;18.10;96.10;;;;;;5080977;28;20076;-46
2021/07/23 03:35:19;;;;;;;13.15;9.75;;;18.10;96.20;;;;;;5080983;28;20089;-46
2021/07/23 03:37:45;;;;;;;14.10;9.50;;;18.10;96.40;;;;;;5080112;28;20495;-47
2021/07/23 03:40:11;;;;;;;11.70;9.27;;;18.00;96.60;;;;;;5078485;28;20426;-47
2021/07/23 03:42:37;;;;;;;11.55;8.40;;;18.00;96.70;;;;;;5078703;28;20064;-46
2021/07/23 03:45:03;;;;;;;11.20;8.98;;;18.20;96.50;;;;;;5080989;28;20040;-47
2021/07/23 03:47:29;;;;;;;10.82;8.90;;;18.10;96.60;;;;;;5096779;27;20075;-47
2021/07/23 03:49:55;;;;;;;13.85;8.95;;;18.10;96.70;;;;;;5118777;27;20439;-46
2021/07/23 03:52:20;;;;;;;10.70;8.98;;;18.40;96.30;;;;;;5120449;27;20071;-47
2021/07/23 03:54:46;;;;;;;12.85;9.43;;;18.30;96.50;;;;;;5094918;27;20066;-46
2021/07/23 03:57:12;;;;;;;15.48;9.18;;;18.70;96.30;;;;;;5114944;27;20024;-46
2021/07/23 03:59:38;;;;;;;14.10;9.15;;;19.00;95.90;;;;;;5102439;28;20028;-46
2021/07/23 04:02:04;;;;;;;12.98;9.05;;;19.30;95.60;;;;;;5121071;27;20036;-46
2021/07/23 04:04:30;;;;;;;13.75;9.57;;;19.20;95.10;;;;;;5116471;27;20100;-46
2021/07/23 04:06:56;;;;;;;14.63;8.45;;;19.20;95.10;;;;;;5119750;27;20392;-47
2021/07/23 04:09:23;;;;;;;12.18;8.88;;;19.50;95.20;;;;;;5094611;28;20042;-46
2021/07/23 04:11:50;;;;;;;11.60;10.13;;;19.60;94.80;;;;;;5098282;27;20100;-47
2021/07/23 04:14:16;;;;;;;18.17;9.15;;;19.80;94.60;;;;;;5114161;28;20081;-46
2021/07/23 04:16:42;;;;;;;14.48;9.63;;;20.00;94.40;;;;;;5116410;27;20047;-46
2021/07/23 04:19:08;;;;;;;14.15;8.73;;;19.80;94.30;;;;;;5117722;27;20063;-46
2021/07/23 04:21:34;;;;;;;12.23;8.23;;;19.60;94.40;;;;;;5114442;28;20027;-46
2021/07/23 04:24:00;;;;;;;9.90;7.45;;;19.80;94.60;;;;;;5114776;28;20032;-46
2021/07/23 04:26:25;;;;;;;11.13;7.85;;;19.90;94.40;;;;;;5116303;28;20470;-46
2021/07/23 04:28:51;;;;;;;10.05;8.00;;;19.70;94.70;;;;;;5113812;28;20110;-46
2021/07/23 04:31:17;;;;;;;8.88;8.00;;;19.50;95.30;;;;;;5116508;28;20035;-46
2021/07/23 04:33:43;;;;;;;10.95;8.18;;;19.30;95.40;;;;;;5115834;28;20024;-46
2021/07/23 04:36:09;;;;;;;10.23;8.35;;;19.20;95.60;;;;;;5095673;27;20036;-46
2021/07/23 04:38:34;;;;;;;10.98;8.27;;;19.30;95.70;;;;;;5115410;28;20088;-46
2021/07/23 04:41:00;;;;;;;13.13;7.80;;;19.60;95.40;;;;;;5120711;27;20126;-47
2021/07/23 04:43:26;;;;;;;10.52;7.90;;;19.90;95.60;;;;;;5118139;27;20024;-46
2021/07/23 04:45:52;;;;;;;16.45;8.90;;;20.20;94.70;;;;;;5123900;27;20037;-46
2021/07/23 04:48:17;;;;;;;9.88;7.60;;;20.30;94.50;;;;;;5120023;27;20062;-46
2021/07/23 04:50:43;;;;;;;11.57;7.82;;;20.50;94.40;;;;;;5097874;27;20032;-46
2021/07/23 04:53:09;;;;;;;12.00;8.25;;;20.60;94.50;;;;;;5119219;27;20509;-46
2021/07/23 04:55:36;;;;;;;10.02;7.70;;;20.80;94.40;;;;;;5119398;27;20035;-47
2021/07/23 04:58:02;;;;;;;14.13;7.90;;;21.00;94.40;;;;;;5121408;27;20039;-46
2021/07/23 05:00:28;;;;;;;12.20;7.80;;;21.20;94.50;;;;;;5120289;27;20084;-46
2021/07/23 05:02:56;;;;;;;10.02;6.85;;;21.30;94.40;;;;;;5099355;27;20036;-46
2021/07/23 05:05:23;;;;;;;11.52;7.60;;;21.50;93.10;;;;;;5121950;27;20031;-46
2021/07/23 05:07:49;;;;;;;10.35;7.85;;;21.50;93.10;;;;;;5123487;27;20110;-46
2021/07/23 05:10:16;;;;;;;13.70;7.97;;;21.60;93.00;;;;;;5127675;27;20023;-46
2021/07/23 05:12:42;;;;;;;12.63;7.90;;;21.70;92.60;;;;;;5125819;27;20053;-47
2021/07/23 05:15:09;;;;;;;17.65;7.82;;;21.70;92.00;;;;;;5117136;27;20016;-47
2021/07/23 05:17:37;;;;;;;11.15;7.55;;;21.80;92.50;;;;;;5119452;27;20023;-46
2021/07/23 05:20:03;;;;;;;11.40;8.20;;;21.80;91.90;;;;;;5120158;27;20028;-47
2021/07/23 05:22:32;;;;;;;11.93;8.05;;;22.00;91.70;;;;;;5119463;27;20408;-46
2021/07/23 05:24:58;;;;;;;10.25;8.25;;;21.80;92.20;;;;;;5121194;27;20028;-46
2021/07/23 05:27:24;;;;;;;14.23;8.43;;;21.90;91.80;;;;;;5120945;27;20037;-48
2021/07/23 05:29:51;;;;;;;11.02;8.88;;;21.80;91.70;;;;;;5114833;27;20591;-46
2021/07/23 05:32:17;;;;;;;10.13;7.90;;;21.70;92.00;;;;;;5120632;27;20114;-46
2021/07/23 05:34:43;;;;;;;12.73;8.00;;;21.90;92.40;;;;;;5122507;27;20039;-47
2021/07/23 05:37:09;;;;;;;14.20;8.65;;;21.90;92.30;;;;;;5121474;27;20036;-47
2021/07/23 05:39:35;;;;;;;13.85;7.97;;;21.90;92.60;;;;;;5123863;27;20288;-47
2021/07/23 05:42:04;;;;;;;16.02;8.10;;;22.00;91.80;;;;;;5096578;28;20035;-46
2021/07/23 05:44:31;;;;;;;14.45;8.00;;;22.10;91.10;;;;;;5100665;28;20036;-46
2021/07/23 05:47:02;;;;;;;14.82;8.85;;;22.10;91.90;;;;;;5121698;27;20043;-46
2021/07/23 05:49:28;;;;;;;14.57;8.40;;;22.00;91.90;;;;;;5121290;27;20027;-47
2021/07/23 05:51:54;;;;;;;13.95;8.43;;;22.20;91.80;;;;;;5128308;27;20359;-46
2021/07/23 05:54:20;;;;;;;14.90;9.05;;;22.30;92.00;;;;;;5103855;27;20087;-46
2021/07/23 05:56:46;;;;;;;17.90;8.75;;;22.20;92.00;;;;;;5104134;27;20406;-46
2021/07/23 05:59:12;;;;;;;29.80;9.35;;;22.10;92.30;;;;;;5118359;27;20136;-46
2021/07/23 06:01:38;;;;;;;13.82;8.93;;;22.10;92.70;;;;;;5118010;27;20141;-46
2021/07/23 06:04:04;;;;;;;21.90;9.82;;;22.10;93.00;;;;;;5122179;27;20102;-46
2021/07/23 06:06:32;;;;;;;18.88;9.82;;;22.30;92.90;;;;;;5088903;27;20111;-46
2021/07/23 06:08:59;;;;;;;23.13;9.98;;;22.40;93.20;;;;;;5125679;27;20377;-47
2021/07/23 06:11:29;;;;;;;20.63;8.95;;;22.60;93.10;;;;;;5123414;27;20122;-46
2021/07/23 06:13:54;;;;;;;16.13;9.27;;;22.60;92.80;;;;;;5116061;27;20032;-46
2021/07/23 06:16:20;;;;;;;21.27;10.48;;;22.70;92.50;;;;;;5120979;27;20382;-46
2021/07/23 06:18:46;;;;;;;15.43;8.43;;;22.70;92.70;;;;;;5127052;27;20068;-46
2021/07/23 06:21:13;;;;;;;15.10;8.45;;;23.00;92.40;;;;;;5122557;27;20027;-47
2021/07/23 06:23:39;;;;;;;17.48;8.80;;;23.20;92.00;;;;;;5118350;27;20471;-47
2021/07/23 06:26:06;;;;;;;23.27;9.30;;;23.30;90.70;;;;;;5116808;27;20085;-47
2021/07/23 06:28:31;;;;;;;18.20;8.48;;;23.20;90.70;;;;;;5126215;27;20448;-47
2021/07/23 06:30:59;;;;;;;25.13;9.80;;;23.20;91.40;;;;;;5123711;27;20118;-47
2021/07/23 06:33:24;;;;;;;34.13;10.75;;;23.10;90.60;;;;;;5125360;27;20474;-46
2021/07/23 06:35:50;;;;;;;23.75;8.75;;;23.20;91.40;;;;;;5082149;27;20046;-50
2021/07/23 06:38:16;;;;;;;21.30;9.23;;;23.10;91.50;;;;;;5125352;27;20032;-47
2021/07/23 06:40:42;;;;;;;21.95;9.07;;;23.30;91.10;;;;;;5124268;27;20035;-46
2021/07/23 06:43:07;;;;;;;26.80;8.30;;;23.40;90.70;;;;;;5108887;27;20036;-47
2021/07/23 06:45:33;;;;;;;17.77;8.45;;;23.40;88.60;;;;;;5105506;27;20370;-47
2021/07/23 06:48:00;;;;;;;13.50;7.20;;;23.50;90.00;;;;;;5119043;27;20093;-49
2021/07/23 06:50:25;;;;;;;23.25;9.30;;;23.70;90.20;;;;;;5118060;27;20474;-46
2021/07/23 06:52:51;;;;;;;25.90;10.10;;;23.80;89.30;;;;;;5119522;27;20023;-47
2021/07/23 06:55:17;;;;;;;38.80;10.73;;;24.10;88.20;;;;;;5116054;27;20028;-47
2021/07/23 06:57:43;;;;;;;20.15;9.07;;;24.30;90.00;;;;;;5026761;27;20453;-46
2021/07/23 07:00:10;;;;;;;29.42;9.73;;;24.20;87.40;;;;;;5119338;27;20425;-46
2021/07/23 07:02:36;;;;;;;29.85;9.70;;;24.40;87.70;;;;;;5053077;28;20131;-46
2021/07/23 07:05:02;;;;;;;21.80;9.50;;;24.10;86.30;;;;;;5057448;28;20041;-46
2021/07/23 07:07:28;;;;;;;26.27;8.73;;;24.10;86.20;;;;;;5021491;28;20041;-46
2021/07/23 07:09:54;;;;;;;34.20;11.68;;;24.00;86.50;;;;;;5037508;28;20068;-46
2021/07/23 07:12:20;;;;;;;27.13;9.43;;;24.10;87.60;;;;;;5044414;28;20051;-47
2021/07/23 07:14:46;;;;;;;27.42;9.13;;;24.10;87.20;;;;;;5059620;28;20037;-46
2021/07/23 07:17:12;;;;;;;27.33;9.75;;;24.40;87.60;;;;;;5032224;28;20028;-46
2021/07/23 07:19:38;;;;;;;28.50;10.88;;;24.70;86.10;;;;;;5059940;28;20219;-46
2021/07/23 07:22:05;;;;;;;20.83;8.55;;;24.80;86.10;;;;;;5050002;28;20044;-46
2021/07/23 07:24:31;;;;;;;23.38;9.13;;;24.90;86.10;;;;;;5015474;28;20415;-47
2021/07/23 07:26:56;;;;;;;22.15;9.18;;;25.00;87.70;;;;;;5058904;28;20086;-47
2021/07/23 07:29:22;;;;;;;19.92;8.65;;;25.30;86.50;;;;;;5046500;28;20112;-46
2021/07/23 07:31:48;;;;;;;11.05;8.70;;;25.20;85.10;;;;;;5058942;28;20104;-47
2021/07/23 07:34:14;;;;;;;12.80;8.13;;;25.20;85.70;;;;;;5059268;28;20036;-47
2021/07/23 07:36:40;;;;;;;26.40;9.10;;;25.30;83.70;;;;;;5057309;28;20331;-47
2021/07/23 07:39:06;;;;;;;15.90;7.50;;;25.30;83.20;;;;;;5034828;27;20104;-46
2021/07/23 07:41:32;;;;;;;13.60;8.45;;;25.50;81.40;;;;;;5119241;27;20031;-47
2021/07/23 07:43:58;;;;;;;12.10;6.82;;;25.30;81.30;;;;;;5114942;27;20084;-47
2021/07/23 07:46:24;;;;;;;12.20;7.00;;;25.40;81.00;;;;;;5116965;27;20027;-46
2021/07/23 07:48:50;;;;;;;13.55;8.27;;;25.60;81.30;;;;;;5117192;27;20031;-46
2021/07/23 07:51:16;;;;;;;11.52;8.00;;;25.60;81.60;;;;;;5097543;28;20135;-46
2021/07/23 07:53:42;;;;;;;10.93;6.63;;;25.70;81.20;;;;;;5116540;27;20034;-46
2021/07/23 07:56:12;;;;;;;9.93;6.90;;;25.60;79.30;;;;;;5114934;27;20042;-46
2021/07/23 07:58:38;;;;;;;11.13;7.60;;;25.80;81.30;;;;;;5114786;27;20023;-47
2021/07/23 08:01:10;;;;;;;13.52;7.20;;;26.00;83.40;;;;;;5115295;27;20035;-46
2021/07/23 08:03:37;;;;;;;9.45;7.45;;;26.30;80.20;;;;;;5119018;27;20030;-46
2021/07/23 08:06:08;;;;;;;11.05;7.28;;;26.30;79.60;;;;;;5079139;27;20036;-47
2021/07/23 08:08:34;;;;;;;12.45;7.97;;;26.50;80.20;;;;;;5117883;27;20038;-46
2021/07/23 08:11:00;;;;;;;10.63;7.55;;;26.60;79.10;;;;;;5118798;27;20398;-46
2021/07/23 08:13:27;;;;;;;9.10;7.30;;;26.90;79.70;;;;;;5114511;28;20031;-47
2021/07/23 08:15:57;;;;;;;11.38;7.47;;;26.90;78.40;;;;;;5101397;28;20072;-47
2021/07/23 08:18:23;;;;;;;18.95;8.82;;;26.90;77.60;;;;;;5115495;27;20398;-46
2021/07/23 08:20:51;;;;;;;15.00;6.75;;;27.10;78.10;;;;;;5118362;28;20031;-46
2021/07/23 08:23:20;;;;;;;12.07;6.57;;;27.10;76.10;;;;;;5118052;27;20032;-47
2021/07/23 08:25:46;;;;;;;10.75;6.93;;;27.20;78.80;;;;;;5109512;28;20031;-46
2021/07/23 08:28:13;;;;;;;10.00;7.22;;;27.30;78.30;;;;;;5115803;27;20035;-46
2021/07/23 08:30:39;;;;;;;13.25;7.22;;;27.30;76.60;;;;;;5118743;28;20020;-47
2021/07/23 08:33:05;;;;;;;11.73;7.25;;;27.10;75.70;;;;;;5116604;28;20067;-48
2021/07/23 08:35:35;;;;;;;15.00;7.53;;;27.50;76.50;;;;;;5113787;28;20427;-46
2021/07/23 08:38:01;;;;;;;10.50;6.72;;;27.50;74.70;;;;;;5115898;28;20036;-46
2021/07/23 08:40:27;;;;;;;13.57;7.30;;;27.70;73.70;;;;;;5115282;28;20050;-46
2021/07/23 08:42:52;;;;;;;12.35;6.95;;;27.70;76.10;;;;;;5095003;28;20496;-46
2021/07/23 08:45:18;;;;;;;9.95;6.18;;;27.80;73.40;;;;;;5115188;28;20028;-47
2021/07/23 08:47:44;;;;;;;8.77;6.47;;;28.00;73.40;;;;;;5115187;28;20050;-46
2021/07/23 08:50:10;;;;;;;9.80;6.65;;;27.90;73.00;;;;;;5117024;28;20493;-47
2021/07/23 08:52:44;;;;;;;6.78;6.03;;;28.00;74.50;;;;;;5036171;28;20102;-46
2021/07/23 08:55:14;;;;;;;8.27;5.93;;;27.80;71.50;;;;;;5086253;28;20126;-47
2021/07/23 08:57:41;;;;;;;10.40;7.20;;;27.90;71.70;;;;;;5115569;27;20551;-47
2021/07/23 09:00:12;;;;;;;8.45;5.40;;;28.20;68.80;;;;;;5115808;28;20063;-46
2021/07/23 09:02:54;;;;;;;8.15;5.72;;;28.50;71.00;;;;;;5094234;28;20054;-47
2021/07/23 09:05:22;;;;;;;8.07;5.72;;;28.30;69.80;;;;;;5102540;28;20502;-47
2021/07/23 09:07:48;;;;;;;9.88;6.63;;;28.50;70.20;;;;;;5120426;27;20394;-46
2021/07/23 09:10:21;;;;;;;8.85;6.95;;;28.60;69.10;;;;;;5120153;28;20028;-46
2021/07/23 09:12:52;;;;;;;9.40;7.05;;;28.90;70.50;;;;;;5113999;28;20112;-47
2021/07/23 09:15:23;;;;;;;10.63;6.47;;;28.80;69.70;;;;;;5115519;28;20036;-46
2021/07/23 09:17:50;;;;;;;7.45;6.55;;;29.00;71.50;;;;;;5078116;28;20063;-47
2021/07/23 09:20:20;;;;;;;8.23;6.22;;;29.30;67.80;;;;;;5085938;28;20444;-46
2021/07/23 09:22:48;;;;;;;6.57;5.85;;;29.30;68.80;;;;;;5117930;27;20050;-47
2021/07/23 09:25:15;;;;;;;8.07;6.15;;;29.40;68.70;;;;;;5097103;28;20032;-47
2021/07/23 09:27:41;;;;;;;9.82;6.75;;;29.40;67.20;;;;;;5111512;27;20027;-46
2021/07/23 09:30:09;;;;;;;11.07;6.45;;;29.60;67.10;;;;;;5116779;27;20097;-46
2021/07/23 09:32:35;;;;;;;8.23;6.13;;;29.80;67.00;;;;;;5119810;27;20043;-47
2021/07/23 09:35:14;;;;;;;8.85;6.40;;;30.30;68.60;;;;;;5116670;27;20382;-47
2021/07/23 09:38:00;;;;;;;10.88;6.35;;;30.50;68.70;;;;;;5125634;27;20028;-47
2021/07/23 09:40:40;;;;;;;11.15;6.10;;;30.50;66.60;;;;;;5116414;27;20134;-53
2021/07/23 09:43:06;;;;;;;11.07;5.93;;;30.30;64.70;;;;;;5117984;27;20032;-46
2021/07/23 09:45:33;;;;;;;9.65;5.30;;;29.90;65.00;;;;;;5117579;27;20035;-47
2021/07/23 10:01:08;;;;;;;7.32;6.30;;;30.10;65.00;;;;;;5054040;28;20462;-49
2021/07/23 10:03:34;;;;;;;;;;;30.70;62.80;;;;;;5040730;28;20045;-48
2021/07/23 10:06:15;;;;;;;10.25;5.70;;;30.70;64.00;;;;;;5047501;28;20024;-50
2021/07/23 10:08:47;;;;;;;6.38;5.25;;;30.10;63.30;;;;;;5049135;28;20039;-50
2021/07/23 10:11:17;;;;;;;13.02;7.25;;;30.10;63.10;;;;;;5042631;28;20033;-49
2021/07/23 10:13:45;;;;;;;12.05;6.00;;;30.70;64.90;;;;;;5060021;28;20089;-49
2021/07/23 10:16:11;;;;;;;10.98;5.95;;;31.10;64.80;;;;;;5109751;28;20028;-49
2021/07/23 10:18:38;;;;;;;12.52;6.20;;;31.30;63.40;;;;;;5095601;28;20044;-51
2021/07/23 10:21:05;;;;;;;7.88;6.13;;;31.50;65.50;;;;;;5077224;28;20032;-49
2021/07/23 10:23:32;;;;;;;10.10;6.90;;;31.40;63.40;;;;;;5063202;28;20032;-49
2021/07/23 10:25:59;;;;;;;6.70;6.00;;;;;;;;;;5096746;28;20034;-49
2021/07/23 10:28:38;;;;;;;8.43;5.97;;;32.00;61.20;;;;;;5100627;28;20050;-50
2021/07/23 10:31:22;;;;;;;8.07;5.85;;;32.00;61.20;;;;;;5088327;28;20491;-49
2021/07/23 10:33:55;;;;;;;8.07;5.82;;;;;;;;;;5100112;28;20036;-49
2021/07/23 10:36:27;;;;;;;7.70;5.68;;;;;;;;;;5073350;28;20090;-49
2021/07/23 10:39:06;;;;;;;9.02;5.90;;;;;;;;;;5106788;28;20040;-50
2021/07/23 10:41:32;;;;;;;8.85;5.60;;;;;;;;;;5081918;28;20028;-49
2021/07/23 10:43:58;;;;;;;8.13;5.85;;;;;;;;;;5087676;28;20041;-49
2021/07/23 10:46:43;;;;;;;10.65;6.20;;;;;;;;;;5046163;28;20109;-49
2021/07/23 10:49:32;;;;;;;9.98;6.00;;;31.80;59.10;;;;;;5050119;28;20038;-50
2021/07/23 10:52:01;;;;;;;8.73;5.88;;;31.90;61.10;;;;;;5082236;28;20032;-49
2021/07/23 10:54:28;;;;;;;8.77;6.10;;;31.80;61.60;;;;;;5079041;28;20077;-49
2021/07/23 10:57:00;;;;;;;6.68;5.85;;;31.70;60.30;;;;;;5078703;28;20470;-49
2021/07/23 10:59:43;;;;;;;8.98;6.75;;;31.60;61.30;;;;;;5072595;28;20472;-49
2021/07/23 11:02:15;;;;;;;9.57;6.70;;;31.30;59.70;;;;;;5062633;28;20052;-49
2021/07/23 11:04:41;;;;;;;;;;;31.00;60.70;;;;;;5064672;28;20063;-49
2021/07/23 11:07:08;;;;;;;12.80;7.50;;;30.70;60.20;;;;;;5067582;28;19913;-49
2021/07/23 11:09:35;;;;;;;10.05;7.55;;;31.10;59.70;;;;;;5067368;28;20123;-49
2021/07/23 11:12:13;;;;;;;12.63;7.10;;;31.70;61.90;;;;;;5069574;28;20036;-49
2021/07/23 11:14:39;;;;;;;8.43;6.63;;;;;;;;;;5069100;28;20074;-49
2021/07/23 11:17:05;;;;;;;7.80;5.65;;;;;;;;;;5069183;28;20040;-49
2021/07/23 11:19:31;;;;;;;7.03;6.28;;;33.30;60.30;;;;;;5043271;28;20497;-49
2021/07/23 11:21:57;;;;;;;7.60;6.65;;;33.40;56.80;;;;;;5040085;28;20063;-49
2021/07/23 11:24:32;;;;;;;10.25;7.18;;;33.60;57.70;;;;;;5018903;28;20389;-50
2021/07/23 11:26:58;;;;;;;12.05;7.18;;;33.90;56.80;;;;;;5026827;28;20029;-47
2021/07/23 11:29:30;;;;;;;7.78;6.28;;;34.20;58.40;;;;;;5026978;28;20037;-47
2021/07/23 11:32:22;;;;;;;10.70;6.60;;;34.00;57.80;;;;;;5038529;28;20068;-49
2021/07/23 11:35:01;;;;;;;7.70;6.10;;;33.60;54.30;;;;;;5025846;28;20128;-49
2021/07/23 11:37:27;;;;;;;9.00;6.35;;;33.70;56.60;;;;;;5025678;28;20630;-49
2021/07/23 11:39:57;;;;;;;7.65;6.72;;;34.00;55.50;;;;;;5030789;28;20022;-49
2021/07/23 11:42:24;;;;;;;8.38;7.22;;;34.30;55.20;;;;;;5028751;28;20025;-49
2021/07/23 11:44:58;;;;;;;8.57;6.30;;;33.90;56.80;;;;;;5028066;28;20437;-49
2021/07/23 11:47:33;;;;;;;7.80;7.00;;;34.10;55.20;;;;;;5047344;28;20083;-49
2021/07/23 11:50:00;;;;;;;13.20;7.40;;;34.20;56.10;;;;;;5073967;28;20037;-49
2021/07/23 11:52:27;;;;;;;7.10;6.50;;;33.60;55.10;;;;;;5070184;28;20362;-49
2021/07/23 11:54:57;;;;;;;10.80;6.75;;;33.90;55.60;;;;;;5068096;28;20467;-49
2021/07/23 11:57:23;;;;;;;9.10;6.82;;;33.90;55.20;;;;;;5054916;28;20067;-49
2021/07/23 11:59:49;;;;;;;8.65;7.00;;;34.20;54.80;;;;;;5074014;28;20059;-49
2021/07/23 12:02:15;;;;;;;9.52;6.43;;;34.20;55.90;;;;;;5040060;28;20044;-49
2021/07/23 12:04:44;;;;;;;9.48;7.15;;;33.60;54.40;;;;;;5072329;28;20371;-50
2021/07/23 12:07:15;;;;;;;7.82;6.78;;;33.40;56.50;;;;;;5049949;28;20477;-49
2021/07/23 12:09:42;;;;;;;7.85;6.32;;;33.30;57.20;;;;;;5082038;28;20464;-49
2021/07/23 12:12:08;;;;;;;10.68;7.25;;;32.80;57.40;;;;;;5070854;28;20075;-49
2021/07/23 12:14:33;;;;;;;8.27;7.00;;;32.80;57.50;;;;;;5048777;28;20036;-49
2021/07/23 12:16:59;;;;;;;7.28;6.53;;;32.90;59.40;;;;;;5070279;28;20020;-49
2021/07/23 12:19:26;;;;;;;11.02;7.80;;;32.70;58.40;;;;;;5033228;28;20089;-49
2021/07/23 12:22:09;;;;;;;12.00;7.20;;;32.10;59.30;;;;;;5042451;28;20033;-48
2021/07/23 12:24:35;;;;;;;11.00;8.07;;;32.10;58.50;;;;;;5031632;28;20087;-49
2021/07/23 12:27:18;;;;;;;10.02;6.95;;;32.30;60.40;;;;;;5084356;28;20041;-49
2021/07/23 12:29:44;;;;;;;7.78;6.80;;;32.90;59.10;;;;;;5035841;28;20033;-49
2021/07/23 12:32:22;;;;;;;9.32;7.90;;;33.30;59.50;;;;;;5036558;28;20175;-49
2021/07/23 12:34:58;;;;;;;7.97;6.60;;;33.80;57.80;;;;;;5030958;28;20038;-49
2021/07/23 12:37:24;;;;;;;9.85;7.70;;;34.00;58.70;;;;;;5052593;28;20368;-49
2021/07/23 12:39:56;;;;;;;8.88;6.78;;;33.90;55.30;;;;;;5045998;28;20053;-49
2021/07/23 12:42:23;;;;;;;9.50;7.18;;;33.80;55.90;;;;;;5029648;28;20040;-49
2021/07/23 12:44:50;;;;;;;8.90;7.05;;;34.10;58.00;;;;;;5023287;28;20036;-49
2021/07/23 12:47:20;;;;;;;9.70;6.75;;;34.20;56.90;;;;;;5043356;28;20037;-49
2021/07/23 12:49:47;;;;;;;10.80;6.50;;;34.20;55.60;;;;;;5035871;28;20480;-49
2021/07/23 12:52:14;;;;;;;10.02;7.50;;;34.30;57.90;;;;;;5039904;28;20291;-49
2021/07/23 12:54:50;;;;;;;9.15;6.95;;;34.40;58.00;;;;;;5047809;28;20373;-49
2021/07/23 12:57:22;;;;;;;13.70;7.57;;;34.20;55.40;;;;;;5036031;28;20492;-49